createdAt,value
2022-11-20T00:01:41.157Z,99703.06
2022-11-20T00:04:12.545Z,99705.56
2022-11-20T00:06:41.155Z,99697.78
2022-11-20T00:09:12.182Z,99711.59
2022-11-20T00:11:40.613Z,99705.72
2022-11-20T00:14:09.049Z,99702.19
2022-11-20T00:16:38.782Z,99696.09
2022-11-20T00:19:07.253Z,99695.09
2022-11-20T00:21:35.643Z,99692.69
2022-11-20T00:24:04.056Z,99704.84
2022-11-20T00:26:32.645Z,99710.16
2022-11-20T00:29:02.857Z,99704.00
2022-11-20T00:31:34.059Z,99712.31
2022-11-20T00:34:04.106Z,99707.22
2022-11-20T00:36:35.818Z,99705.47
2022-11-20T00:39:04.524Z,99702.78
2022-11-20T00:41:33.331Z,99689.94
2022-11-20T00:44:01.893Z,99700.88
2022-11-20T00:46:30.683Z,99691.50
2022-11-20T00:48:59.880Z,99685.66
2022-11-20T00:51:30.162Z,99676.25
2022-11-20T00:54:01.028Z,99673.84
2022-11-20T00:56:29.603Z,99674.78
2022-11-20T00:59:01.066Z,99676.47
2022-11-20T01:01:31.270Z,99683.50
2022-11-20T01:04:02.095Z,99681.63
2022-11-20T01:06:34.110Z,99670.44
2022-11-20T01:09:06.285Z,99678.22
2022-11-20T01:11:36.766Z,99685.13
2022-11-20T01:14:07.674Z,99690.34
2022-11-20T01:16:38.385Z,99677.50
2022-11-20T01:19:09.685Z,99673.06
2022-11-20T01:21:43.496Z,99678.09
2022-11-20T01:24:17.604Z,99681.50
2022-11-20T01:26:48.542Z,99676.53
2022-11-20T01:29:20.051Z,99669.63
2022-11-20T01:31:48.831Z,99680.56
2022-11-20T01:34:20.343Z,99681.50
2022-11-20T01:36:50.455Z,99680.41
2022-11-20T01:39:21.936Z,99676.91
2022-11-20T01:42:10.585Z,99672.72
2022-11-20T01:44:56.525Z,99673.75
2022-11-20T01:47:32.972Z,99671.09
2022-11-20T01:50:07.743Z,99670.34
2022-11-20T01:52:43.428Z,99666.69
2022-11-20T01:55:17.610Z,99662.41
2022-11-20T01:57:48.056Z,99657.25
2022-11-20T02:00:20.441Z,99659.06
2022-11-20T02:02:54.272Z,99669.44
2022-11-20T02:05:29.645Z,99667.88
2022-11-20T02:08:00.212Z,99663.59
2022-11-20T02:10:30.562Z,99665.53
2022-11-20T02:13:16.991Z,99648.16
2022-11-20T02:15:46.542Z,99642.00
2022-11-20T02:18:18.667Z,99657.50
2022-11-20T02:20:50.562Z,99669.34
2022-11-20T02:23:28.576Z,99668.53
2022-11-20T02:26:00.095Z,99661.75
2022-11-20T02:28:29.417Z,99651.38
2022-11-20T02:30:57.703Z,99652.09
2022-11-20T02:33:26.203Z,99644.28
2022-11-20T02:35:54.744Z,99646.75
2022-11-20T02:38:23.655Z,99634.78
2022-11-20T02:40:55.500Z,99652.78
2022-11-20T02:43:26.086Z,99635.66
2022-11-20T02:45:54.488Z,99641.47
2022-11-20T02:48:25.107Z,99644.13
2022-11-20T02:50:53.760Z,99637.16
2022-11-20T02:53:22.128Z,99639.81
2022-11-20T02:55:50.556Z,99639.19
2022-11-20T02:58:19.045Z,99650.09
2022-11-20T03:00:48.850Z,99655.94
2022-11-20T03:03:17.231Z,99658.22
2022-11-20T03:05:45.746Z,99660.94
2022-11-20T03:08:14.196Z,99655.09
2022-11-20T03:10:42.672Z,99660.66
2022-11-20T03:13:11.042Z,99651.28
2022-11-20T03:15:39.513Z,99649.84
2022-11-20T03:18:09.210Z,99636.53
2022-11-20T03:20:37.593Z,99640.25
2022-11-20T03:23:06.336Z,99629.31
2022-11-20T03:25:34.694Z,99637.06
2022-11-20T03:28:03.058Z,99633.84
2022-11-20T03:30:31.411Z,99644.38
2022-11-20T03:32:59.896Z,99645.50
2022-11-20T03:35:29.593Z,99648.59
2022-11-20T03:37:57.953Z,99640.47
2022-11-20T03:40:26.513Z,99646.44
2022-11-20T03:42:54.833Z,99645.56
2022-11-20T03:45:23.165Z,99646.59
2022-11-20T03:47:51.660Z,99638.59
2022-11-20T03:50:20.144Z,99642.25
2022-11-20T03:52:49.921Z,99636.72
2022-11-20T03:55:18.491Z,99635.72
2022-11-20T03:57:46.822Z,99639.72
2022-11-20T04:00:16.934Z,99634.63
2022-11-20T04:02:45.308Z,99633.63
2022-11-20T04:05:13.654Z,99634.56
2022-11-20T04:07:42.141Z,99618.31
2022-11-20T04:10:12.070Z,99627.63
2022-11-20T04:12:40.456Z,99628.69
2022-11-20T04:15:09.979Z,99638.06
2022-11-20T04:17:38.398Z,99635.53
2022-11-20T04:20:08.590Z,99635.72
2022-11-20T04:22:36.965Z,99633.13
2022-11-20T04:25:06.358Z,99622.88
2022-11-20T04:27:36.169Z,99615.25
2022-11-20T04:30:05.034Z,99616.91
2022-11-20T04:32:33.350Z,99602.44
2022-11-20T04:35:02.810Z,99619.63
2022-11-20T04:37:31.171Z,99622.88
2022-11-20T04:39:59.540Z,99614.53
2022-11-20T04:42:30.550Z,99622.25
2022-11-20T04:45:00.648Z,99623.06
2022-11-20T04:47:29.093Z,99617.06
2022-11-20T04:49:57.585Z,99620.41
2022-11-20T04:52:26.202Z,99607.59
2022-11-20T04:54:54.835Z,99620.13
2022-11-20T04:57:23.339Z,99607.53
2022-11-20T04:59:51.763Z,99604.19
2022-11-20T05:02:22.170Z,99599.81
2022-11-20T05:04:50.628Z,99606.44
2022-11-20T05:07:19.241Z,99605.44
2022-11-20T05:09:47.621Z,99605.69
2022-11-20T05:12:16.055Z,99603.16
2022-11-20T05:14:44.412Z,99591.34
2022-11-20T05:17:13.510Z,99599.13
2022-11-20T05:19:43.237Z,99609.47
2022-11-20T05:22:11.638Z,99600.19
2022-11-20T05:24:40.006Z,99600.16
2022-11-20T05:27:08.342Z,99601.09
2022-11-20T05:29:36.769Z,99595.97
2022-11-20T05:32:06.788Z,99596.78
2022-11-20T05:34:35.462Z,99589.91
2022-11-20T05:37:05.483Z,99593.44
2022-11-20T05:39:34.062Z,99591.03
2022-11-20T05:42:19.792Z,99605.63
2022-11-20T05:44:48.165Z,99602.25
2022-11-20T05:47:16.540Z,99604.81
2022-11-20T05:49:44.933Z,99610.72
2022-11-20T05:52:14.689Z,99602.03
2022-11-20T05:54:43.074Z,99596.06
2022-11-20T05:57:11.466Z,99600.41
2022-11-20T05:59:39.828Z,99594.31
2022-11-20T06:02:08.154Z,99591.00
2022-11-20T06:04:36.532Z,99584.09
2022-11-20T06:07:04.981Z,99584.13
2022-11-20T06:09:34.834Z,99589.34
2022-11-20T06:12:03.320Z,99584.44
2022-11-20T06:14:31.660Z,99580.16
2022-11-20T06:17:00.282Z,99580.72
2022-11-20T06:19:28.644Z,99590.94
2022-11-20T06:21:56.952Z,99595.38
2022-11-20T06:24:26.415Z,99594.66
2022-11-20T06:26:56.170Z,99589.50
2022-11-20T06:29:26.806Z,99592.75
2022-11-20T06:32:01.109Z,99602.94
2022-11-20T06:34:29.433Z,99588.25
2022-11-20T06:36:57.874Z,99591.50
2022-11-20T06:39:26.521Z,99585.34
2022-11-20T06:41:59.107Z,99596.97
2022-11-20T06:44:28.104Z,99598.69
2022-11-20T06:46:56.577Z,99606.31
2022-11-20T06:49:25.183Z,99602.84
2022-11-20T06:51:53.745Z,99602.19
2022-11-20T06:54:22.134Z,99611.03
2022-11-20T06:56:50.854Z,99621.22
2022-11-20T06:59:20.882Z,99615.06
2022-11-20T07:01:49.579Z,99605.59
2022-11-20T07:04:17.965Z,99603.94
2022-11-20T07:06:46.360Z,99608.31
2022-11-20T07:09:14.872Z,99590.44
2022-11-20T07:11:43.412Z,99595.66
2022-11-20T07:14:11.728Z,99595.72
2022-11-20T07:16:41.513Z,99601.81
2022-11-20T07:19:09.871Z,99590.88
2022-11-20T07:21:38.344Z,99591.00
2022-11-20T07:24:07.006Z,99594.53
2022-11-20T07:26:35.439Z,99601.25
2022-11-20T07:29:03.842Z,99600.47
2022-11-20T07:31:32.434Z,99597.00
2022-11-20T07:34:02.369Z,99597.91
2022-11-20T07:36:30.743Z,99603.97
2022-11-20T07:38:59.173Z,99591.25
2022-11-20T07:41:28.638Z,99594.81
2022-11-20T07:43:57.125Z,99595.59
2022-11-20T07:46:25.753Z,99592.03
2022-11-20T07:48:54.492Z,99596.38
2022-11-20T07:51:24.518Z,99602.38
2022-11-20T07:53:53.664Z,99606.72
2022-11-20T07:56:22.401Z,99605.88
2022-11-20T07:58:50.844Z,99605.88
2022-11-20T08:01:19.417Z,99613.59
2022-11-20T08:03:47.864Z,99613.53
2022-11-20T08:06:16.696Z,99612.78
2022-11-20T08:08:46.446Z,99617.09
2022-11-20T08:11:32.583Z,99620.44
2022-11-20T08:14:13.622Z,99621.25
2022-11-20T08:16:42.252Z,99629.06
2022-11-20T08:19:10.940Z,99619.81
2022-11-20T08:21:39.473Z,99625.03
2022-11-20T08:24:10.558Z,99630.25
2022-11-20T08:26:40.416Z,99627.75
2022-11-20T08:29:09.047Z,99617.59
2022-11-20T08:31:37.992Z,99624.44
2022-11-20T08:34:09.257Z,99629.63
2022-11-20T08:36:38.751Z,99633.94
2022-11-20T08:39:08.564Z,99635.63
2022-11-20T08:41:37.865Z,99643.31
2022-11-20T08:44:08.837Z,99644.03
2022-11-20T08:46:40.305Z,99641.38
2022-11-20T08:49:11.733Z,99640.50
2022-11-20T08:51:40.856Z,99643.13
2022-11-20T08:54:11.106Z,99651.75
2022-11-20T08:56:39.586Z,99653.63
2022-11-20T08:59:23.337Z,99641.69
2022-11-20T09:01:56.484Z,99649.56
2022-11-20T09:04:24.908Z,99647.00
2022-11-20T09:06:53.465Z,99644.50
2022-11-20T09:09:23.480Z,99633.50
2022-11-20T09:11:52.260Z,99636.22
2022-11-20T09:14:20.624Z,99640.59
2022-11-20T09:16:49.062Z,99644.13
2022-11-20T09:22:06.125Z,99643.53
2022-11-20T09:24:35.906Z,99655.53
2022-11-20T09:27:06.355Z,99647.78
2022-11-20T09:29:34.902Z,99647.84
2022-11-20T09:32:03.479Z,99658.13
2022-11-20T09:34:32.018Z,99653.91
2022-11-20T09:37:03.136Z,99649.69
2022-11-20T09:39:39.904Z,99647.22
2022-11-20T09:42:28.868Z,99646.47
2022-11-20T09:45:18.441Z,99648.38
2022-11-20T09:48:06.888Z,99655.38
2022-11-20T09:50:39.264Z,99657.09
2022-11-20T09:53:16.449Z,99650.25
2022-11-20T09:55:48.301Z,99643.50
2022-11-20T09:58:27.133Z,99646.19
2022-11-20T10:00:57.638Z,99636.00
2022-11-20T10:03:40.499Z,99631.72
2022-11-20T10:06:14.365Z,99636.00
2022-11-20T10:08:47.976Z,99633.41
2022-11-20T10:11:27.311Z,99635.13
2022-11-20T10:14:04.868Z,99629.97
2022-11-20T10:16:43.079Z,99626.53
2022-11-20T10:19:37.928Z,99624.84
2022-11-20T10:22:15.929Z,99610.22
2022-11-20T10:24:57.893Z,99617.06
2022-11-20T10:27:59.083Z,99617.94
2022-11-20T10:30:28.089Z,99623.06
2022-11-20T10:33:03.584Z,99617.91
2022-11-20T10:35:41.077Z,99623.00
2022-11-20T10:38:17.274Z,99633.28
2022-11-20T10:40:48.863Z,99630.72
2022-11-20T10:43:28.061Z,99619.53
2022-11-20T10:46:03.119Z,99611.75
2022-11-20T10:48:34.387Z,99616.91
2022-11-20T10:51:15.379Z,99614.34
2022-11-20T10:54:00.213Z,99601.44
2022-11-20T10:56:36.876Z,99613.44
2022-11-20T10:59:40.964Z,99606.63
2022-11-20T11:02:21.671Z,99602.31
2022-11-20T11:04:52.579Z,99600.66
2022-11-20T11:07:26.372Z,99591.22
2022-11-20T11:09:57.489Z,99595.50
2022-11-20T11:12:28.533Z,99586.06
2022-11-20T11:14:59.808Z,99589.53
2022-11-20T11:17:31.612Z,99593.81
2022-11-20T11:20:16.444Z,99589.56
2022-11-20T11:22:48.023Z,99592.09
2022-11-20T11:25:30.368Z,99586.97
2022-11-20T11:28:01.935Z,99579.25
2022-11-20T11:30:43.544Z,99574.09
2022-11-20T11:33:14.189Z,99578.41
2022-11-20T11:35:51.269Z,99566.41
2022-11-20T11:38:25.918Z,99555.25
2022-11-20T11:40:57.462Z,99551.81
2022-11-20T11:43:47.121Z,99560.41
2022-11-20T11:46:33.397Z,99556.13
2022-11-20T11:49:04.285Z,99549.31
2022-11-20T11:51:40.346Z,99556.16
2022-11-20T11:54:19.899Z,99559.63
2022-11-20T11:56:48.790Z,99558.75
2022-11-20T11:59:29.761Z,99545.88
2022-11-20T12:02:06.269Z,99546.75
2022-11-20T12:04:46.317Z,99538.19
2022-11-20T12:07:45.355Z,99532.19
2022-11-20T12:10:21.516Z,99537.31
2022-11-20T12:12:58.588Z,99530.41
2022-11-20T12:15:34.946Z,99531.22
2022-11-20T12:18:10.839Z,99522.72
2022-11-20T12:20:50.568Z,99520.97
2022-11-20T12:23:26.654Z,99518.41
2022-11-20T12:25:59.312Z,99524.41
2022-11-20T12:28:51.186Z,99521.84
2022-11-20T12:31:49.932Z,99515.00
2022-11-20T12:34:46.874Z,99520.16
2022-11-20T12:37:32.128Z,99523.56
2022-11-20T12:40:18.005Z,99528.72
2022-11-20T12:43:22.307Z,99540.72
2022-11-20T12:46:11.171Z,99532.16
2022-11-20T12:48:55.895Z,99527.88
2022-11-20T12:51:46.341Z,99522.75
2022-11-20T12:54:49.318Z,99511.63
2022-11-20T12:57:26.114Z,99511.63
2022-11-20T13:00:12.185Z,99519.31
2022-11-20T13:03:08.963Z,99514.19
2022-11-20T13:05:48.857Z,99513.31
2022-11-20T13:08:25.268Z,99509.91
2022-11-20T13:11:03.164Z,99516.75
2022-11-20T13:13:44.031Z,99503.91
2022-11-20T13:16:18.877Z,99503.03
2022-11-20T13:18:47.634Z,99496.16
2022-11-20T13:21:19.007Z,99488.47
2022-11-20T13:23:49.280Z,99491.88
2022-11-20T13:26:23.337Z,99489.31
2022-11-20T13:29:07.739Z,99482.47
2022-11-20T13:31:39.576Z,99472.19
2022-11-20T13:34:09.706Z,99457.59
2022-11-20T13:36:38.183Z,99479.91
2022-11-20T13:39:07.968Z,99461.88
2022-11-20T13:41:39.074Z,99467.03
2022-11-20T13:44:16.229Z,99462.75
2022-11-20T13:46:47.430Z,99460.19
2022-11-20T13:49:28.736Z,99461.88
2022-11-20T13:52:10.855Z,99466.19
2022-11-20T13:55:00.792Z,99466.19
2022-11-20T13:58:08.213Z,99461.03
2022-11-20T14:00:47.260Z,99460.19
2022-11-20T14:03:44.268Z,99465.31
2022-11-20T14:06:20.894Z,99461.91
2022-11-20T14:08:51.743Z,99459.31
2022-11-20T14:11:25.305Z,99454.19
2022-11-20T14:14:04.017Z,99455.91
2022-11-20T14:16:36.873Z,99453.34
2022-11-20T14:19:31.347Z,99452.44
2022-11-20T14:22:17.180Z,99449.91
2022-11-20T14:24:45.631Z,99443.03
2022-11-20T14:27:19.940Z,99432.75
2022-11-20T14:29:50.899Z,99430.16
2022-11-20T14:32:23.073Z,99425.88
2022-11-20T14:34:52.981Z,99414.75
2022-11-20T14:37:26.850Z,99408.75
2022-11-20T14:39:56.906Z,99413.88
2022-11-20T14:42:28.978Z,99415.59
2022-11-20T14:44:59.807Z,99415.59
2022-11-20T14:47:31.463Z,99413.88
2022-11-20T14:50:03.570Z,99422.47
2022-11-20T14:52:35.774Z,99416.47
2022-11-20T14:55:04.181Z,99420.72
2022-11-20T14:57:36.206Z,99417.31
2022-11-20T15:00:21.669Z,99396.75
2022-11-20T15:02:52.262Z,99393.31
2022-11-20T15:05:22.868Z,99393.31
2022-11-20T15:07:54.879Z,99393.28
2022-11-20T15:10:26.015Z,99389.88
2022-11-20T15:12:58.354Z,99391.59
2022-11-20T15:15:33.179Z,99383.91
2022-11-20T15:18:02.064Z,99381.34
2022-11-20T15:20:34.686Z,99381.34
2022-11-20T15:23:03.037Z,99376.16
2022-11-20T15:25:31.767Z,99381.34
2022-11-20T15:28:01.571Z,99378.78
2022-11-20T15:30:30.030Z,99373.63
2022-11-20T15:32:58.430Z,99371.06
2022-11-20T15:35:26.869Z,99368.47
2022-11-20T15:37:56.535Z,99362.47
2022-11-20T15:40:24.911Z,99367.59
2022-11-20T15:43:12.551Z,99362.47
2022-11-20T15:45:47.174Z,99360.75
2022-11-20T15:48:20.046Z,99353.06
2022-11-20T15:50:56.555Z,99353.03
2022-11-20T15:53:25.287Z,99352.16
2022-11-20T15:55:53.851Z,99353.06
2022-11-20T15:58:24.112Z,99353.91
2022-11-20T16:00:54.080Z,99345.31
2022-11-20T16:03:22.747Z,99345.31
2022-11-20T16:05:51.635Z,99340.19
2022-11-20T16:08:20.247Z,99341.03
2022-11-20T16:10:49.612Z,99335.91
2022-11-20T16:13:37.668Z,99335.06
2022-11-20T16:16:12.118Z,99330.78
2022-11-20T16:18:40.541Z,99335.06
2022-11-20T16:21:14.758Z,99329.91
2022-11-20T16:23:43.951Z,99322.16
2022-11-20T16:26:13.936Z,99312.75
2022-11-20T16:28:42.797Z,99315.31
2022-11-20T16:31:15.161Z,99314.47
2022-11-20T16:33:44.167Z,99309.34
2022-11-20T16:36:14.322Z,99300.78
2022-11-20T16:38:43.057Z,99292.19
2022-11-20T16:41:14.483Z,99295.63
2022-11-20T16:43:51.404Z,99282.81
2022-11-20T16:46:27.039Z,99280.22
2022-11-20T16:48:57.279Z,99270.81
2022-11-20T16:51:26.966Z,99281.97
2022-11-20T16:53:56.222Z,99271.66
2022-11-20T16:56:27.990Z,99268.25
2022-11-20T16:58:59.118Z,99268.25
2022-11-20T17:01:30.699Z,99268.25
2022-11-20T17:04:01.918Z,99268.25
2022-11-20T17:06:32.457Z,99272.50
2022-11-20T17:09:01.287Z,99277.66
2022-11-20T17:11:30.176Z,99266.47
2022-11-20T17:14:01.063Z,99268.22
2022-11-20T17:16:32.512Z,99263.06
2022-11-20T17:19:03.544Z,99264.78
2022-11-20T17:21:33.262Z,99256.22
2022-11-20T17:24:03.459Z,99255.38
2022-11-20T17:26:32.551Z,99256.25
2022-11-20T17:29:03.503Z,99251.09
2022-11-20T17:31:35.134Z,99245.94
2022-11-20T17:34:04.457Z,99247.63
2022-11-20T17:36:33.596Z,99240.78
2022-11-20T17:39:02.345Z,99235.66
2022-11-20T17:41:31.476Z,99231.34
2022-11-20T17:44:02.230Z,99221.06
2022-11-20T17:46:35.606Z,99219.34
2022-11-20T17:49:05.939Z,99216.78
2022-11-20T17:51:36.206Z,99209.06
2022-11-20T17:54:08.383Z,99215.03
2022-11-20T17:56:54.885Z,99209.88
2022-11-20T17:59:23.632Z,99206.47
2022-11-20T18:01:54.831Z,99207.31
2022-11-20T18:04:25.347Z,99198.75
2022-11-20T18:06:53.912Z,99197.91
2022-11-20T18:09:22.282Z,99199.63
2022-11-20T18:11:50.889Z,99188.47
2022-11-20T18:14:32.639Z,99185.03
2022-11-20T18:17:06.071Z,99184.16
2022-11-20T18:19:41.227Z,99167.88
2022-11-20T18:22:18.325Z,99153.28
2022-11-20T18:24:47.123Z,99149.88
2022-11-20T18:27:18.419Z,99152.41
2022-11-20T18:29:51.794Z,99148.13
2022-11-20T18:32:22.986Z,99148.97
2022-11-20T18:34:52.398Z,99146.38
2022-11-20T18:37:21.405Z,99144.59
2022-11-20T18:39:50.881Z,99138.63
2022-11-20T18:42:37.345Z,99139.44
2022-11-20T18:45:06.703Z,99130.00
2022-11-20T18:47:40.185Z,99130.81
2022-11-20T18:50:10.332Z,99127.34
2022-11-20T18:52:44.583Z,99124.75
2022-11-20T18:55:13.486Z,99118.72
2022-11-20T18:57:42.109Z,99113.53
2022-11-20T19:00:12.918Z,99111.00
2022-11-20T19:02:43.579Z,99114.34
2022-11-20T19:05:16.121Z,99111.78
2022-11-20T19:07:44.879Z,99104.91
2022-11-20T19:10:13.606Z,99111.72
2022-11-20T19:12:42.257Z,99100.53
2022-11-20T19:15:11.799Z,99106.50
2022-11-20T19:17:40.550Z,99109.91
2022-11-20T19:20:11.790Z,99100.50
2022-11-20T19:22:40.170Z,99097.88
2022-11-20T19:25:09.672Z,99099.63
2022-11-20T19:27:38.125Z,99108.22
2022-11-20T19:30:07.890Z,99097.88
2022-11-20T19:32:36.354Z,99097.06
2022-11-20T19:35:05.428Z,99093.59
2022-11-20T19:37:36.796Z,99083.28
2022-11-20T19:40:05.809Z,99078.13
2022-11-20T19:42:34.190Z,99081.72
2022-11-20T19:45:02.565Z,99071.69
2022-11-20T19:48:00.474Z,99071.84
2022-11-20T19:50:19.440Z,99066.72
2022-11-20T19:52:51.106Z,99062.50
2022-11-20T19:55:22.744Z,99054.81
2022-11-20T19:57:51.153Z,99060.03
2022-11-20T20:00:27.940Z,99055.69
2022-11-20T20:02:59.605Z,99052.25
2022-11-20T20:05:28.166Z,99044.56
2022-11-20T20:07:58.365Z,99048.91
2022-11-20T20:10:26.851Z,99052.28
2022-11-20T20:12:55.165Z,99044.59
2022-11-20T20:15:23.868Z,99036.88
2022-11-20T20:17:53.381Z,99036.00
2022-11-20T20:20:22.615Z,99044.53
2022-11-20T20:22:51.530Z,99035.16
2022-11-20T20:25:21.576Z,99024.00
2022-11-20T20:27:50.072Z,99020.56
2022-11-20T20:30:18.845Z,99018.00
2022-11-20T20:32:50.752Z,99021.44
2022-11-20T20:35:21.897Z,99011.97
2022-11-20T20:37:50.541Z,99025.78
2022-11-20T20:40:20.544Z,99025.78
2022-11-20T20:42:49.184Z,99020.59
2022-11-20T20:45:18.025Z,99018.03
2022-11-20T20:47:46.765Z,99015.47
2022-11-20T20:50:15.400Z,99024.06
2022-11-20T20:52:43.978Z,99023.16
2022-11-20T20:55:12.967Z,99030.91
2022-11-20T20:57:42.875Z,99027.44
2022-11-20T21:00:11.979Z,99021.50
2022-11-20T21:02:40.497Z,99021.47
2022-11-20T21:05:10.126Z,99023.13
2022-11-20T21:07:59.351Z,99026.59
2022-11-20T21:10:28.340Z,99026.59
2022-11-20T21:12:58.395Z,99026.50
2022-11-20T21:15:26.939Z,99030.81
2022-11-20T21:17:55.503Z,99023.13
2022-11-20T21:20:41.665Z,99014.56
2022-11-20T21:23:11.347Z,99008.63
2022-11-20T21:25:40.617Z,99010.28
2022-11-20T21:28:16.828Z,99012.91
2022-11-20T21:30:47.102Z,99004.38
2022-11-20T21:33:16.153Z,99001.78
2022-11-20T21:35:44.719Z,99007.81
2022-11-20T21:38:13.252Z,99005.25
2022-11-20T21:40:41.845Z,98993.28
2022-11-20T21:43:11.927Z,99009.56
2022-11-20T21:45:40.410Z,99005.28
2022-11-20T21:48:08.987Z,99012.16
2022-11-20T21:50:37.514Z,99026.69
2022-11-20T21:53:06.018Z,99018.13
2022-11-20T21:55:34.414Z,99022.38
2022-11-20T21:58:03.064Z,99020.66
2022-11-20T22:00:33.088Z,99015.50
2022-11-20T22:03:01.678Z,99022.38
2022-11-20T22:05:30.472Z,99006.94
2022-11-20T22:07:58.984Z,99019.81
2022-11-20T22:10:28.032Z,99012.09
2022-11-20T22:13:17.193Z,99002.69
2022-11-20T22:16:00.337Z,98997.56
2022-11-20T22:18:29.459Z,98984.69
2022-11-20T22:20:57.929Z,98975.28
2022-11-20T22:23:26.685Z,98977.00
2022-11-20T22:25:55.471Z,98977.88
2022-11-20T22:28:24.067Z,98987.25
2022-11-20T22:30:53.963Z,98983.84
2022-11-20T22:33:22.442Z,98984.75
2022-11-20T22:35:51.169Z,98981.31
2022-11-20T22:38:19.587Z,98985.56
2022-11-20T22:40:48.608Z,98987.22
2022-11-20T22:43:17.033Z,98982.16
2022-11-20T22:45:46.515Z,98982.81
2022-11-20T22:48:16.375Z,98980.44
2022-11-20T22:50:45.275Z,98972.25
2022-11-20T22:53:13.746Z,98979.75
2022-11-20T22:55:42.132Z,98974.59
2022-11-20T22:58:10.555Z,98980.84
2022-11-20T23:00:38.940Z,98979.16
2022-11-20T23:03:07.407Z,98970.69
2022-11-20T23:05:37.182Z,98977.59
2022-11-20T23:08:06.133Z,98966.50
2022-11-20T23:10:34.582Z,98975.97
2022-11-20T23:13:03.049Z,98984.56
2022-11-20T23:15:31.450Z,98980.31
2022-11-20T23:17:59.897Z,98989.78
2022-11-20T23:20:28.284Z,98987.19
2022-11-20T23:22:58.132Z,98988.88
2022-11-20T23:25:26.485Z,98996.59
2022-11-20T23:27:55.278Z,98989.72
2022-11-20T23:30:23.888Z,98988.88
2022-11-20T23:32:52.314Z,98986.34
2022-11-20T23:35:20.677Z,98999.16
2022-11-20T23:37:49.050Z,98986.28
2022-11-20T23:40:19.009Z,98988.88
2022-11-20T23:43:01.459Z,98974.28
2022-11-20T23:45:29.969Z,98982.00
2022-11-20T23:47:58.386Z,98988.81
2022-11-20T23:50:26.847Z,98977.63
2022-11-20T23:52:55.293Z,98976.81
2022-11-20T23:55:25.121Z,98978.44
2022-11-20T23:57:53.630Z,98977.59
